sensor_id;sensor_type;location;lat;lon;timestamp;P1;durP1;ratioP1;P2;durP2;ratioP2
826;SDS011;395;48.132;11.608;2022-10-12T00:01:02;24.70;;;17.93;;
826;SDS011;395;48.132;11.608;2022-10-12T00:03:29;24.23;;;20.07;;
826;SDS011;395;48.132;11.608;2022-10-12T00:06:14;25.87;;;18.63;;
826;SDS011;395;48.132;11.608;2022-10-12T00:08:42;25.30;;;19.83;;
826;SDS011;395;48.132;11.608;2022-10-12T00:11:19;23.47;;;19.33;;
826;SDS011;395;48.132;11.608;2022-10-12T00:13:47;29.83;;;20.27;;
826;SDS011;395;48.132;11.608;2022-10-12T00:16:14;26.90;;;19.93;;
826;SDS011;395;48.132;11.608;2022-10-12T00:18:41;28.27;;;19.33;;
826;SDS011;395;48.132;11.608;2022-10-12T00:21:11;21.60;;;18.50;;
826;SDS011;395;48.132;11.608;2022-10-12T00:23:39;19.40;;;16.70;;
826;SDS011;395;48.132;11.608;2022-10-12T00:26:06;24.57;;;18.77;;
826;SDS011;395;48.132;11.608;2022-10-12T00:28:33;23.57;;;18.80;;
826;SDS011;395;48.132;11.608;2022-10-12T00:30:59;21.17;;;18.40;;
826;SDS011;395;48.132;11.608;2022-10-12T00:33:29;24.03;;;18.90;;
826;SDS011;395;48.132;11.608;2022-10-12T00:35:55;24.63;;;19.27;;
826;SDS011;395;48.132;11.608;2022-10-12T00:38:21;23.17;;;19.47;;
826;SDS011;395;48.132;11.608;2022-10-12T00:40:47;24.33;;;18.87;;
826;SDS011;395;48.132;11.608;2022-10-12T00:43:29;22.77;;;19.90;;
826;SDS011;395;48.132;11.608;2022-10-12T00:46:02;24.57;;;20.60;;
826;SDS011;395;48.132;11.608;2022-10-12T00:48:31;24.57;;;18.33;;
826;SDS011;395;48.132;11.608;2022-10-12T00:50:57;27.07;;;20.50;;
826;SDS011;395;48.132;11.608;2022-10-12T00:53:27;23.37;;;20.00;;
826;SDS011;395;48.132;11.608;2022-10-12T00:55:59;21.40;;;18.47;;
826;SDS011;395;48.132;11.608;2022-10-12T00:58:27;21.63;;;18.10;;
826;SDS011;395;48.132;11.608;2022-10-12T01:00:55;24.70;;;19.53;;
826;SDS011;395;48.132;11.608;2022-10-12T01:03:28;21.57;;;18.20;;
826;SDS011;395;48.132;11.608;2022-10-12T01:05:53;20.77;;;17.60;;
826;SDS011;395;48.132;11.608;2022-10-12T01:08:20;20.10;;;17.40;;
826;SDS011;395;48.132;11.608;2022-10-12T01:10:46;21.40;;;17.83;;
826;SDS011;395;48.132;11.608;2022-10-12T01:13:12;26.23;;;19.00;;
826;SDS011;395;48.132;11.608;2022-10-12T01:15:40;25.63;;;20.07;;
826;SDS011;395;48.132;11.608;2022-10-12T01:18:34;20.50;;;18.30;;
826;SDS011;395;48.132;11.608;2022-10-12T01:21:26;21.50;;;17.93;;
826;SDS011;395;48.132;11.608;2022-10-12T01:35:06;22.30;;;18.20;;
826;SDS011;395;48.132;11.608;2022-10-12T01:37:45;26.90;;;20.17;;
826;SDS011;395;48.132;11.608;2022-10-12T01:40:41;27.30;;;19.80;;
826;SDS011;395;48.132;11.608;2022-10-12T01:43:12;29.83;;;21.87;;
826;SDS011;395;48.132;11.608;2022-10-12T01:45:42;24.93;;;18.53;;
826;SDS011;395;48.132;11.608;2022-10-12T01:48:07;29.17;;;21.27;;
826;SDS011;395;48.132;11.608;2022-10-12T01:51:07;26.13;;;19.17;;
826;SDS011;395;48.132;11.608;2022-10-12T01:58:57;25.43;;;20.33;;
826;SDS011;395;48.132;11.608;2022-10-12T02:01:43;30.17;;;23.47;;
826;SDS011;395;48.132;11.608;2022-10-12T02:07:04;31.10;;;21.40;;
826;SDS011;395;48.132;11.608;2022-10-12T02:09:35;30.43;;;22.23;;
826;SDS011;395;48.132;11.608;2022-10-12T02:12:03;29.90;;;22.27;;
826;SDS011;395;48.132;11.608;2022-10-12T02:14:36;31.80;;;21.67;;
826;SDS011;395;48.132;11.608;2022-10-12T02:17:04;30.40;;;22.23;;
826;SDS011;395;48.132;11.608;2022-10-12T02:19:45;35.80;;;25.30;;
826;SDS011;395;48.132;11.608;2022-10-12T02:22:14;31.87;;;23.23;;
826;SDS011;395;48.132;11.608;2022-10-12T02:24:42;38.53;;;25.33;;
826;SDS011;395;48.132;11.608;2022-10-12T02:27:09;31.73;;;23.23;;
826;SDS011;395;48.132;11.608;2022-10-12T02:29:39;39.80;;;24.80;;
826;SDS011;395;48.132;11.608;2022-10-12T02:32:13;30.33;;;22.87;;
826;SDS011;395;48.132;11.608;2022-10-12T02:35:11;31.10;;;22.23;;
826;SDS011;395;48.132;11.608;2022-10-12T02:37:43;33.27;;;25.07;;
826;SDS011;395;48.132;11.608;2022-10-12T02:42:45;33.93;;;21.80;;
826;SDS011;395;48.132;11.608;2022-10-12T02:45:15;32.77;;;23.00;;
826;SDS011;395;48.132;11.608;2022-10-12T02:47:43;41.07;;;25.43;;
826;SDS011;395;48.132;11.608;2022-10-12T02:50:11;36.17;;;24.20;;
826;SDS011;395;48.132;11.608;2022-10-12T02:52:38;36.80;;;26.43;;
826;SDS011;395;48.132;11.608;2022-10-12T02:55:04;39.07;;;26.17;;
826;SDS011;395;48.132;11.608;2022-10-12T02:57:30;45.43;;;25.77;;
826;SDS011;395;48.132;11.608;2022-10-12T02:59:56;33.67;;;23.00;;
826;SDS011;395;48.132;11.608;2022-10-12T03:02:21;43.63;;;26.23;;
826;SDS011;395;48.132;11.608;2022-10-12T03:04:47;36.27;;;26.73;;
826;SDS011;395;48.132;11.608;2022-10-12T03:07:13;40.40;;;25.30;;
826;SDS011;395;48.132;11.608;2022-10-12T03:09:38;41.13;;;27.17;;
826;SDS011;395;48.132;11.608;2022-10-12T03:12:04;35.87;;;24.20;;
826;SDS011;395;48.132;11.608;2022-10-12T03:14:30;38.43;;;26.50;;
826;SDS011;395;48.132;11.608;2022-10-12T03:16:57;48.70;;;28.57;;
826;SDS011;395;48.132;11.608;2022-10-12T03:19:23;56.17;;;28.57;;
826;SDS011;395;48.132;11.608;2022-10-12T03:21:49;41.07;;;26.10;;
826;SDS011;395;48.132;11.608;2022-10-12T03:24:14;43.07;;;26.50;;
826;SDS011;395;48.132;11.608;2022-10-12T03:26:40;38.80;;;26.43;;
826;SDS011;395;48.132;11.608;2022-10-12T03:29:05;42.43;;;26.73;;
826;SDS011;395;48.132;11.608;2022-10-12T03:31:32;37.83;;;25.50;;
826;SDS011;395;48.132;11.608;2022-10-12T03:33:57;47.57;;;27.50;;
826;SDS011;395;48.132;11.608;2022-10-12T03:36:23;41.10;;;26.33;;
826;SDS011;395;48.132;11.608;2022-10-12T03:38:48;36.07;;;25.23;;
826;SDS011;395;48.132;11.608;2022-10-12T03:41:14;39.87;;;26.27;;
826;SDS011;395;48.132;11.608;2022-10-12T03:43:40;36.47;;;25.10;;
826;SDS011;395;48.132;11.608;2022-10-12T03:46:05;39.97;;;24.60;;
826;SDS011;395;48.132;11.608;2022-10-12T03:48:31;43.17;;;26.83;;
826;SDS011;395;48.132;11.608;2022-10-12T03:50:56;50.60;;;29.03;;
826;SDS011;395;48.132;11.608;2022-10-12T03:53:22;40.60;;;26.13;;
826;SDS011;395;48.132;11.608;2022-10-12T03:55:48;46.20;;;28.30;;
826;SDS011;395;48.132;11.608;2022-10-12T03:58:13;44.47;;;28.17;;
826;SDS011;395;48.132;11.608;2022-10-12T04:00:39;37.53;;;26.20;;
826;SDS011;395;48.132;11.608;2022-10-12T04:03:05;39.93;;;24.93;;
826;SDS011;395;48.132;11.608;2022-10-12T04:05:30;40.73;;;26.67;;
826;SDS011;395;48.132;11.608;2022-10-12T04:07:56;35.97;;;25.60;;
826;SDS011;395;48.132;11.608;2022-10-12T04:10:22;39.80;;;25.70;;
826;SDS011;395;48.132;11.608;2022-10-12T04:12:48;44.43;;;27.90;;
826;SDS011;395;48.132;11.608;2022-10-12T04:15:14;48.67;;;28.47;;
826;SDS011;395;48.132;11.608;2022-10-12T04:17:42;48.10;;;29.27;;
826;SDS011;395;48.132;11.608;2022-10-12T04:20:08;48.50;;;30.30;;
826;SDS011;395;48.132;11.608;2022-10-12T04:22:35;50.40;;;30.30;;
826;SDS011;395;48.132;11.608;2022-10-12T04:25:01;39.97;;;26.90;;
826;SDS011;395;48.132;11.608;2022-10-12T04:27:26;38.47;;;26.27;;
826;SDS011;395;48.132;11.608;2022-10-12T04:29:52;39.80;;;26.13;;
826;SDS011;395;48.132;11.608;2022-10-12T04:32:17;47.57;;;29.87;;
826;SDS011;395;48.132;11.608;2022-10-12T04:34:43;42.90;;;26.13;;
826;SDS011;395;48.132;11.608;2022-10-12T04:37:09;37.67;;;24.67;;
826;SDS011;395;48.132;11.608;2022-10-12T04:39:34;43.70;;;25.83;;
826;SDS011;395;48.132;11.608;2022-10-12T04:42:00;43.47;;;27.57;;
826;SDS011;395;48.132;11.608;2022-10-12T04:44:26;39.77;;;27.77;;
826;SDS011;395;48.132;11.608;2022-10-12T04:46:52;40.47;;;25.63;;
826;SDS011;395;48.132;11.608;2022-10-12T04:49:17;40.53;;;26.10;;
826;SDS011;395;48.132;11.608;2022-10-12T04:51:43;38.27;;;26.10;;
826;SDS011;395;48.132;11.608;2022-10-12T04:54:09;33.10;;;23.90;;
826;SDS011;395;48.132;11.608;2022-10-12T04:56:35;38.20;;;25.20;;
826;SDS011;395;48.132;11.608;2022-10-12T04:59:01;44.97;;;26.17;;
826;SDS011;395;48.132;11.608;2022-10-12T05:01:26;42.23;;;27.00;;
826;SDS011;395;48.132;11.608;2022-10-12T05:03:52;34.20;;;24.33;;
826;SDS011;395;48.132;11.608;2022-10-12T05:06:18;43.17;;;25.50;;
826;SDS011;395;48.132;11.608;2022-10-12T05:08:43;38.67;;;25.47;;
826;SDS011;395;48.132;11.608;2022-10-12T05:11:09;41.93;;;28.03;;
826;SDS011;395;48.132;11.608;2022-10-12T05:13:34;44.80;;;28.67;;
826;SDS011;395;48.132;11.608;2022-10-12T05:16:00;37.43;;;24.87;;
826;SDS011;395;48.132;11.608;2022-10-12T05:18:26;37.30;;;24.97;;
826;SDS011;395;48.132;11.608;2022-10-12T05:20:51;38.03;;;26.80;;
826;SDS011;395;48.132;11.608;2022-10-12T05:23:17;44.80;;;27.80;;
826;SDS011;395;48.132;11.608;2022-10-12T05:25:43;38.10;;;25.83;;
826;SDS011;395;48.132;11.608;2022-10-12T05:28:08;40.10;;;25.93;;
826;SDS011;395;48.132;11.608;2022-10-12T05:30:34;38.93;;;25.83;;
826;SDS011;395;48.132;11.608;2022-10-12T05:32:59;41.60;;;26.87;;
826;SDS011;395;48.132;11.608;2022-10-12T05:35:25;39.00;;;25.67;;
826;SDS011;395;48.132;11.608;2022-10-12T05:37:51;44.37;;;26.83;;
826;SDS011;395;48.132;11.608;2022-10-12T05:40:17;45.07;;;28.60;;
826;SDS011;395;48.132;11.608;2022-10-12T05:42:43;47.80;;;28.90;;
826;SDS011;395;48.132;11.608;2022-10-12T05:45:09;42.97;;;28.90;;
826;SDS011;395;48.132;11.608;2022-10-12T05:47:35;51.03;;;28.17;;
826;SDS011;395;48.132;11.608;2022-10-12T05:50:01;44.73;;;29.33;;
826;SDS011;395;48.132;11.608;2022-10-12T05:52:27;42.73;;;29.20;;
826;SDS011;395;48.132;11.608;2022-10-12T05:54:52;42.87;;;28.57;;
826;SDS011;395;48.132;11.608;2022-10-12T05:57:18;44.23;;;28.90;;
826;SDS011;395;48.132;11.608;2022-10-12T05:59:44;46.03;;;27.87;;
826;SDS011;395;48.132;11.608;2022-10-12T06:02:13;38.90;;;26.03;;
826;SDS011;395;48.132;11.608;2022-10-12T06:04:40;43.33;;;28.17;;
826;SDS011;395;48.132;11.608;2022-10-12T06:07:05;43.67;;;27.27;;
826;SDS011;395;48.132;11.608;2022-10-12T06:09:31;45.13;;;25.33;;
826;SDS011;395;48.132;11.608;2022-10-12T06:11:57;42.47;;;26.43;;
826;SDS011;395;48.132;11.608;2022-10-12T06:14:23;42.23;;;28.47;;
826;SDS011;395;48.132;11.608;2022-10-12T06:16:48;42.30;;;28.00;;
826;SDS011;395;48.132;11.608;2022-10-12T06:19:14;36.90;;;25.40;;
826;SDS011;395;48.132;11.608;2022-10-12T06:21:39;51.00;;;28.87;;
826;SDS011;395;48.132;11.608;2022-10-12T06:24:05;44.47;;;28.30;;
826;SDS011;395;48.132;11.608;2022-10-12T06:26:31;41.97;;;26.80;;
826;SDS011;395;48.132;11.608;2022-10-12T06:28:56;39.47;;;26.43;;
826;SDS011;395;48.132;11.608;2022-10-12T06:31:24;41.80;;;26.80;;
826;SDS011;395;48.132;11.608;2022-10-12T06:33:51;42.13;;;28.37;;
826;SDS011;395;48.132;11.608;2022-10-12T06:36:17;39.57;;;27.10;;
826;SDS011;395;48.132;11.608;2022-10-12T06:38:44;44.27;;;26.10;;
826;SDS011;395;48.132;11.608;2022-10-12T06:41:09;36.53;;;25.70;;
826;SDS011;395;48.132;11.608;2022-10-12T06:43:35;41.27;;;26.80;;
826;SDS011;395;48.132;11.608;2022-10-12T06:46:01;39.83;;;26.13;;
826;SDS011;395;48.132;11.608;2022-10-12T06:48:27;39.33;;;25.07;;
826;SDS011;395;48.132;11.608;2022-10-12T06:50:53;38.80;;;25.43;;
826;SDS011;395;48.132;11.608;2022-10-12T06:53:18;39.83;;;26.43;;
826;SDS011;395;48.132;11.608;2022-10-12T06:55:44;34.70;;;24.27;;
826;SDS011;395;48.132;11.608;2022-10-12T06:58:10;37.13;;;26.90;;
826;SDS011;395;48.132;11.608;2022-10-12T07:00:36;42.77;;;27.60;;
826;SDS011;395;48.132;11.608;2022-10-12T07:03:01;39.60;;;24.90;;
826;SDS011;395;48.132;11.608;2022-10-12T07:05:27;42.60;;;27.37;;
826;SDS011;395;48.132;11.608;2022-10-12T07:07:53;32.97;;;23.23;;
826;SDS011;395;48.132;11.608;2022-10-12T07:10:19;40.20;;;26.50;;
826;SDS011;395;48.132;11.608;2022-10-12T07:12:45;35.10;;;24.60;;
826;SDS011;395;48.132;11.608;2022-10-12T07:15:10;40.23;;;25.93;;
826;SDS011;395;48.132;11.608;2022-10-12T07:17:36;42.17;;;25.73;;
826;SDS011;395;48.132;11.608;2022-10-12T07:20:02;40.17;;;26.60;;
826;SDS011;395;48.132;11.608;2022-10-12T07:22:28;33.90;;;24.70;;
826;SDS011;395;48.132;11.608;2022-10-12T07:24:54;37.83;;;24.97;;
826;SDS011;395;48.132;11.608;2022-10-12T07:27:19;28.90;;;22.07;;
826;SDS011;395;48.132;11.608;2022-10-12T07:29:45;35.87;;;25.00;;
826;SDS011;395;48.132;11.608;2022-10-12T07:32:11;37.77;;;24.80;;
826;SDS011;395;48.132;11.608;2022-10-12T07:34:36;29.70;;;23.07;;
826;SDS011;395;48.132;11.608;2022-10-12T07:37:02;32.20;;;22.37;;
826;SDS011;395;48.132;11.608;2022-10-12T07:39:28;31.20;;;20.93;;
826;SDS011;395;48.132;11.608;2022-10-12T07:41:53;31.37;;;21.27;;
826;SDS011;395;48.132;11.608;2022-10-12T07:44:19;33.77;;;22.93;;
826;SDS011;395;48.132;11.608;2022-10-12T07:46:46;29.80;;;20.00;;
826;SDS011;395;48.132;11.608;2022-10-12T07:49:13;27.07;;;19.27;;
826;SDS011;395;48.132;11.608;2022-10-12T07:51:41;26.13;;;17.53;;
826;SDS011;395;48.132;11.608;2022-10-12T07:54:07;22.60;;;17.33;;
826;SDS011;395;48.132;11.608;2022-10-12T07:56:33;20.67;;;16.77;;
826;SDS011;395;48.132;11.608;2022-10-12T07:58:59;21.73;;;16.37;;
826;SDS011;395;48.132;11.608;2022-10-12T08:01:26;22.60;;;16.87;;
826;SDS011;395;48.132;11.608;2022-10-12T08:03:56;21.67;;;16.50;;
826;SDS011;395;48.132;11.608;2022-10-12T08:06:24;22.40;;;16.13;;
826;SDS011;395;48.132;11.608;2022-10-12T08:08:51;23.97;;;18.10;;
826;SDS011;395;48.132;11.608;2022-10-12T08:11:17;23.77;;;17.50;;
826;SDS011;395;48.132;11.608;2022-10-12T08:13:43;26.30;;;18.80;;
826;SDS011;395;48.132;11.608;2022-10-12T08:16:19;26.67;;;18.30;;
826;SDS011;395;48.132;11.608;2022-10-12T08:18:45;26.33;;;18.50;;
826;SDS011;395;48.132;11.608;2022-10-12T08:21:12;65.93;;;53.77;;
826;SDS011;395;48.132;11.608;2022-10-12T08:23:39;76.80;;;68.10;;
826;SDS011;395;48.132;11.608;2022-10-12T08:26:05;42.50;;;35.90;;
826;SDS011;395;48.132;11.608;2022-10-12T08:28:30;27.17;;;19.30;;
826;SDS011;395;48.132;11.608;2022-10-12T08:30:58;23.50;;;17.57;;
826;SDS011;395;48.132;11.608;2022-10-12T08:33:27;23.57;;;16.70;;
826;SDS011;395;48.132;11.608;2022-10-12T08:35:53;23.90;;;16.07;;
826;SDS011;395;48.132;11.608;2022-10-12T08:38:18;22.73;;;16.63;;
826;SDS011;395;48.132;11.608;2022-10-12T08:46:10;21.50;;;15.40;;
826;SDS011;395;48.132;11.608;2022-10-12T08:51:11;25.83;;;17.40;;
826;SDS011;395;48.132;11.608;2022-10-12T08:53:44;25.80;;;18.60;;
826;SDS011;395;48.132;11.608;2022-10-12T08:56:23;38.83;;;29.77;;
826;SDS011;395;48.132;11.608;2022-10-12T08:58:50;24.07;;;19.00;;
826;SDS011;395;48.132;11.608;2022-10-12T09:14:52;27.77;;;17.50;;
826;SDS011;395;48.132;11.608;2022-10-12T09:17:34;24.20;;;18.20;;
826;SDS011;395;48.132;11.608;2022-10-12T09:22:52;23.17;;;17.23;;
826;SDS011;395;48.132;11.608;2022-10-12T09:25:23;27.50;;;18.20;;
826;SDS011;395;48.132;11.608;2022-10-12T09:27:51;27.10;;;19.20;;
826;SDS011;395;48.132;11.608;2022-10-12T09:30:17;25.80;;;17.57;;
826;SDS011;395;48.132;11.608;2022-10-12T09:35:27;24.60;;;17.37;;
826;SDS011;395;48.132;11.608;2022-10-12T09:37:53;24.00;;;17.43;;
826;SDS011;395;48.132;11.608;2022-10-12T09:40:26;23.53;;;16.40;;
826;SDS011;395;48.132;11.608;2022-10-12T09:42:55;26.40;;;16.83;;
826;SDS011;395;48.132;11.608;2022-10-12T09:45:24;23.10;;;15.97;;
826;SDS011;395;48.132;11.608;2022-10-12T09:50:45;23.60;;;16.80;;
826;SDS011;395;48.132;11.608;2022-10-12T09:56:08;55.83;;;47.20;;
826;SDS011;395;48.132;11.608;2022-10-12T09:58:48;40.33;;;34.50;;
826;SDS011;395;48.132;11.608;2022-10-12T10:01:19;22.90;;;19.40;;
826;SDS011;395;48.132;11.608;2022-10-12T10:04:09;23.40;;;14.57;;
826;SDS011;395;48.132;11.608;2022-10-12T10:06:46;22.63;;;16.13;;
826;SDS011;395;48.132;11.608;2022-10-12T10:10:02;18.30;;;13.97;;
826;SDS011;395;48.132;11.608;2022-10-12T10:14:57;21.53;;;14.03;;
826;SDS011;395;48.132;11.608;2022-10-12T10:17:24;18.20;;;13.93;;
826;SDS011;395;48.132;11.608;2022-10-12T10:19:52;20.37;;;14.20;;
826;SDS011;395;48.132;11.608;2022-10-12T10:22:20;20.80;;;12.80;;
826;SDS011;395;48.132;11.608;2022-10-12T10:24:57;15.23;;;11.77;;
826;SDS011;395;48.132;11.608;2022-10-12T10:27:37;20.17;;;13.20;;
826;SDS011;395;48.132;11.608;2022-10-12T10:32:42;14.70;;;11.17;;
826;SDS011;395;48.132;11.608;2022-10-12T10:37:44;18.53;;;13.53;;
826;SDS011;395;48.132;11.608;2022-10-12T10:40:23;15.63;;;12.13;;
826;SDS011;395;48.132;11.608;2022-10-12T10:42:54;51.70;;;46.33;;
826;SDS011;395;48.132;11.608;2022-10-12T10:48:18;46.07;;;41.13;;
826;SDS011;395;48.132;11.608;2022-10-12T10:51:04;22.83;;;19.20;;
826;SDS011;395;48.132;11.608;2022-10-12T10:53:44;14.83;;;13.20;;
826;SDS011;395;48.132;11.608;2022-10-12T10:56:13;16.93;;;12.30;;
826;SDS011;395;48.132;11.608;2022-10-12T10:58:56;14.20;;;11.60;;
826;SDS011;395;48.132;11.608;2022-10-12T11:01:35;13.43;;;12.03;;
826;SDS011;395;48.132;11.608;2022-10-12T11:04:15;12.40;;;11.10;;
826;SDS011;395;48.132;11.608;2022-10-12T11:07:00;16.33;;;11.23;;
826;SDS011;395;48.132;11.608;2022-10-12T11:09:42;15.23;;;11.43;;
826;SDS011;395;48.132;11.608;2022-10-12T11:12:15;16.23;;;12.27;;
826;SDS011;395;48.132;11.608;2022-10-12T11:14:54;16.57;;;12.33;;
826;SDS011;395;48.132;11.608;2022-10-12T11:22:54;20.00;;;13.70;;
826;SDS011;395;48.132;11.608;2022-10-12T11:25:43;17.50;;;13.13;;
826;SDS011;395;48.132;11.608;2022-10-12T11:28:16;18.83;;;13.10;;
826;SDS011;395;48.132;11.608;2022-10-12T11:30:46;15.23;;;13.27;;
826;SDS011;395;48.132;11.608;2022-10-12T11:33:20;16.17;;;11.20;;
826;SDS011;395;48.132;11.608;2022-10-12T11:35:49;19.30;;;13.07;;
826;SDS011;395;48.132;11.608;2022-10-12T11:40:52;16.27;;;12.20;;
826;SDS011;395;48.132;11.608;2022-10-12T11:43:27;15.90;;;12.90;;
826;SDS011;395;48.132;11.608;2022-10-12T11:45:59;14.23;;;12.27;;
826;SDS011;395;48.132;11.608;2022-10-12T11:48:29;15.73;;;12.70;;
826;SDS011;395;48.132;11.608;2022-10-12T11:50:59;17.07;;;13.00;;
826;SDS011;395;48.132;11.608;2022-10-12T11:53:34;58.03;;;48.57;;
826;SDS011;395;48.132;11.608;2022-10-12T11:58:48;17.63;;;14.23;;
826;SDS011;395;48.132;11.608;2022-10-12T12:04:22;15.63;;;11.77;;
826;SDS011;395;48.132;11.608;2022-10-12T12:06:52;20.27;;;13.73;;
826;SDS011;395;48.132;11.608;2022-10-12T12:12:22;15.57;;;12.20;;
826;SDS011;395;48.132;11.608;2022-10-12T12:19:50;14.57;;;11.30;;
826;SDS011;395;48.132;11.608;2022-10-12T12:22:30;17.33;;;13.97;;
826;SDS011;395;48.132;11.608;2022-10-12T12:25:17;18.23;;;14.00;;
826;SDS011;395;48.132;11.608;2022-10-12T12:27:53;18.87;;;13.10;;
826;SDS011;395;48.132;11.608;2022-10-12T12:30:31;15.87;;;13.30;;
826;SDS011;395;48.132;11.608;2022-10-12T12:35:51;16.30;;;12.03;;
826;SDS011;395;48.132;11.608;2022-10-12T12:38:28;16.57;;;13.03;;
826;SDS011;395;48.132;11.608;2022-10-12T12:51:03;15.23;;;12.07;;
826;SDS011;395;48.132;11.608;2022-10-12T12:53:58;18.80;;;11.60;;
826;SDS011;395;48.132;11.608;2022-10-12T12:59:18;11.60;;;9.70;;
826;SDS011;395;48.132;11.608;2022-10-12T13:13:30;15.80;;;12.17;;
826;SDS011;395;48.132;11.608;2022-10-12T13:19:34;13.63;;;10.87;;
826;SDS011;395;48.132;11.608;2022-10-12T13:22:02;19.70;;;13.50;;
826;SDS011;395;48.132;11.608;2022-10-12T13:24:31;16.80;;;12.77;;
826;SDS011;395;48.132;11.608;2022-10-12T13:27:15;16.27;;;12.60;;
826;SDS011;395;48.132;11.608;2022-10-12T13:29:48;14.93;;;11.27;;
826;SDS011;395;48.132;11.608;2022-10-12T13:33:05;16.13;;;11.93;;
826;SDS011;395;48.132;11.608;2022-10-12T13:38:01;15.20;;;11.50;;
826;SDS011;395;48.132;11.608;2022-10-12T13:40:39;17.77;;;11.87;;
826;SDS011;395;48.132;11.608;2022-10-12T13:43:25;15.27;;;11.67;;
826;SDS011;395;48.132;11.608;2022-10-12T13:45:57;14.03;;;11.53;;
826;SDS011;395;48.132;11.608;2022-10-12T13:48:23;15.93;;;12.80;;
826;SDS011;395;48.132;11.608;2022-10-12T13:50:50;19.27;;;13.10;;
826;SDS011;395;48.132;11.608;2022-10-12T13:53:33;17.60;;;12.50;;
826;SDS011;395;48.132;11.608;2022-10-12T13:56:07;14.63;;;11.20;;
826;SDS011;395;48.132;11.608;2022-10-12T13:58:38;18.27;;;12.17;;
826;SDS011;395;48.132;11.608;2022-10-12T14:01:05;17.00;;;13.13;;
826;SDS011;395;48.132;11.608;2022-10-12T14:03:41;16.20;;;12.27;;
826;SDS011;395;48.132;11.608;2022-10-12T14:06:27;22.30;;;14.53;;
826;SDS011;395;48.132;11.608;2022-10-12T14:08:55;19.20;;;12.87;;
826;SDS011;395;48.132;11.608;2022-10-12T14:11:22;18.10;;;13.97;;
826;SDS011;395;48.132;11.608;2022-10-12T14:13:48;19.73;;;13.30;;
826;SDS011;395;48.132;11.608;2022-10-12T14:16:16;18.30;;;13.97;;
826;SDS011;395;48.132;11.608;2022-10-12T14:18:42;16.33;;;12.23;;
826;SDS011;395;48.132;11.608;2022-10-12T14:21:24;17.20;;;12.37;;
826;SDS011;395;48.132;11.608;2022-10-12T14:23:52;16.93;;;13.37;;
826;SDS011;395;48.132;11.608;2022-10-12T14:31:52;16.40;;;13.10;;
826;SDS011;395;48.132;11.608;2022-10-12T14:36:57;18.43;;;13.40;;
826;SDS011;395;48.132;11.608;2022-10-12T14:39:29;19.33;;;13.60;;
826;SDS011;395;48.132;11.608;2022-10-12T14:41:56;18.80;;;13.33;;
826;SDS011;395;48.132;11.608;2022-10-12T14:44:26;17.57;;;12.87;;
826;SDS011;395;48.132;11.608;2022-10-12T14:46:59;20.50;;;13.43;;
826;SDS011;395;48.132;11.608;2022-10-12T14:49:39;19.37;;;13.10;;
826;SDS011;395;48.132;11.608;2022-10-12T14:52:06;18.93;;;12.73;;
826;SDS011;395;48.132;11.608;2022-10-12T14:54:42;20.70;;;13.37;;
826;SDS011;395;48.132;11.608;2022-10-12T14:57:12;22.67;;;14.30;;
826;SDS011;395;48.132;11.608;2022-10-12T14:59:39;20.17;;;14.17;;
826;SDS011;395;48.132;11.608;2022-10-12T15:02:11;19.10;;;12.87;;
826;SDS011;395;48.132;11.608;2022-10-12T15:04:43;16.60;;;11.67;;
826;SDS011;395;48.132;11.608;2022-10-12T15:07:14;17.17;;;12.63;;
826;SDS011;395;48.132;11.608;2022-10-12T15:09:42;17.17;;;12.83;;
826;SDS011;395;48.132;11.608;2022-10-12T15:12:09;17.80;;;13.63;;
826;SDS011;395;48.132;11.608;2022-10-12T15:14:37;18.37;;;13.70;;
826;SDS011;395;48.132;11.608;2022-10-12T15:17:03;17.93;;;12.37;;
826;SDS011;395;48.132;11.608;2022-10-12T15:19:29;16.80;;;11.50;;
826;SDS011;395;48.132;11.608;2022-10-12T15:21:55;16.43;;;11.67;;
826;SDS011;395;48.132;11.608;2022-10-12T15:24:20;18.80;;;13.70;;
826;SDS011;395;48.132;11.608;2022-10-12T15:26:46;20.23;;;13.93;;
826;SDS011;395;48.132;11.608;2022-10-12T15:29:11;18.30;;;14.00;;
826;SDS011;395;48.132;11.608;2022-10-12T15:31:37;19.03;;;14.57;;
826;SDS011;395;48.132;11.608;2022-10-12T15:34:03;16.50;;;12.57;;
826;SDS011;395;48.132;11.608;2022-10-12T15:36:36;19.03;;;13.00;;
826;SDS011;395;48.132;11.608;2022-10-12T15:39:01;21.40;;;13.70;;
826;SDS011;395;48.132;11.608;2022-10-12T15:41:27;20.50;;;15.10;;
826;SDS011;395;48.132;11.608;2022-10-12T15:43:53;24.00;;;14.43;;
826;SDS011;395;48.132;11.608;2022-10-12T15:46:18;16.77;;;14.03;;
826;SDS011;395;48.132;11.608;2022-10-12T15:48:44;18.53;;;14.00;;
826;SDS011;395;48.132;11.608;2022-10-12T15:51:15;15.23;;;12.67;;
826;SDS011;395;48.132;11.608;2022-10-12T15:53:47;17.97;;;14.40;;
826;SDS011;395;48.132;11.608;2022-10-12T15:56:14;21.03;;;13.43;;
826;SDS011;395;48.132;11.608;2022-10-12T15:58:41;20.00;;;13.57;;
826;SDS011;395;48.132;11.608;2022-10-12T16:01:14;19.50;;;13.50;;
826;SDS011;395;48.132;11.608;2022-10-12T16:03:41;20.57;;;15.20;;
826;SDS011;395;48.132;11.608;2022-10-12T16:06:07;15.67;;;13.73;;
826;SDS011;395;48.132;11.608;2022-10-12T16:08:33;28.90;;;16.33;;
826;SDS011;395;48.132;11.608;2022-10-12T16:11:01;18.30;;;15.60;;
826;SDS011;395;48.132;11.608;2022-10-12T16:13:27;22.70;;;15.53;;
826;SDS011;395;48.132;11.608;2022-10-12T16:15:53;17.13;;;13.97;;
826;SDS011;395;48.132;11.608;2022-10-12T16:18:19;19.23;;;14.97;;
826;SDS011;395;48.132;11.608;2022-10-12T16:20:44;18.10;;;14.10;;
826;SDS011;395;48.132;11.608;2022-10-12T16:23:13;17.50;;;12.27;;
826;SDS011;395;48.132;11.608;2022-10-12T16:25:41;18.27;;;13.33;;
826;SDS011;395;48.132;11.608;2022-10-12T16:28:08;17.97;;;13.97;;
826;SDS011;395;48.132;11.608;2022-10-12T16:30:35;16.13;;;12.57;;
826;SDS011;395;48.132;11.608;2022-10-12T16:33:01;15.00;;;12.20;;
826;SDS011;395;48.132;11.608;2022-10-12T16:35:27;15.40;;;11.50;;
826;SDS011;395;48.132;11.608;2022-10-12T16:37:53;16.93;;;13.70;;
826;SDS011;395;48.132;11.608;2022-10-12T16:40:19;16.80;;;12.60;;
826;SDS011;395;48.132;11.608;2022-10-12T16:42:48;14.53;;;12.40;;
826;SDS011;395;48.132;11.608;2022-10-12T16:45:17;18.90;;;12.70;;
826;SDS011;395;48.132;11.608;2022-10-12T16:47:47;20.20;;;13.40;;
826;SDS011;395;48.132;11.608;2022-10-12T16:50:18;19.77;;;12.63;;
826;SDS011;395;48.132;11.608;2022-10-12T16:52:45;16.10;;;12.30;;
826;SDS011;395;48.132;11.608;2022-10-12T16:55:12;17.70;;;12.47;;
826;SDS011;395;48.132;11.608;2022-10-12T16:57:38;15.97;;;13.20;;
826;SDS011;395;48.132;11.608;2022-10-12T17:00:05;23.37;;;14.37;;
826;SDS011;395;48.132;11.608;2022-10-12T17:02:32;15.50;;;12.93;;
826;SDS011;395;48.132;11.608;2022-10-12T17:04:58;19.40;;;13.00;;
826;SDS011;395;48.132;11.608;2022-10-12T17:07:24;14.97;;;11.97;;
826;SDS011;395;48.132;11.608;2022-10-12T17:09:50;16.07;;;11.70;;
826;SDS011;395;48.132;11.608;2022-10-12T17:12:16;14.33;;;11.97;;
826;SDS011;395;48.132;11.608;2022-10-12T17:14:42;19.70;;;13.93;;
826;SDS011;395;48.132;11.608;2022-10-12T17:17:08;19.07;;;13.50;;
826;SDS011;395;48.132;11.608;2022-10-12T17:19:34;17.40;;;13.60;;
826;SDS011;395;48.132;11.608;2022-10-12T17:22:05;23.53;;;15.77;;